Time;durP1;ratioP1;P1;durP2;ratioP2;P2;SDS_P1;SDS_P2;PMS_P1;PMS_P2;Temp;Humidity;BMP_temperature;BMP_pressure;BME280_temperature;BME280_humidity;BME280_pressure;Samples;Min_cycle;Max_cycle;Signal;HPM_P1;HPM_P2
2022/03/06 00:01:09;;;;;;;;;;;;;;;30.29;19.78;101156.28;5084808;28;905;-37
2022/03/06 00:03:35;;;;;;;;;;;;;;;30.53;19.60;101156.06;5076394;28;912;-38
2022/03/06 00:06:00;;;;;;;;;;;;;;;30.12;19.69;101154.81;5094160;28;765;-38
2022/03/06 00:08:25;;;;;;;;;;;;;;;29.99;20.04;101150.97;5095752;28;1137;-37
2022/03/06 00:10:50;;;;;;;;;;;;;;;30.25;19.72;101155.00;5095264;28;904;-38
2022/03/06 00:13:16;;;;;;;;;;;;;;;30.48;19.49;101155.81;5095963;28;934;-37
2022/03/06 00:15:42;;;;;;;;;;;;;;;30.40;19.50;101149.47;5089392;28;868;-39
2022/03/06 00:18:07;;;;;;;;;;;;;;;30.47;19.30;101154.97;5085121;28;1902;-38
2022/03/06 00:20:33;;;;;;;;;;;;;;;30.26;19.72;101153.13;5095786;28;875;-39
2022/03/06 00:22:58;;;;;;;;;;;;;;;30.32;19.61;101146.91;5095532;28;907;-38
2022/03/06 00:25:23;;;;;;;;;;;;;;;30.03;19.73;101143.28;5095505;28;920;-39
2022/03/06 00:27:49;;;;;;;;;;;;;;;29.87;20.35;101147.06;5095273;28;825;-39
2022/03/06 00:30:14;;;;;;;;;;;;;;;30.15;19.78;101144.44;5090331;28;818;-40
2022/03/06 00:32:39;;;;;;;;;;;;;;;30.20;19.83;101135.72;5089604;28;835;-38
2022/03/06 00:35:05;;;;;;;;;;;;;;;30.32;19.54;101130.63;5095659;28;837;-39
2022/03/06 00:37:30;;;;;;;;;;;;;;;30.44;19.50;101130.94;5095155;28;842;-38
2022/03/06 00:39:55;;;;;;;;;;;;;;;30.24;19.65;101131.63;5095605;28;1902;-40
2022/03/06 00:42:21;;;;;;;;;;;;;;;30.45;19.40;101131.78;5071406;28;909;-39
2022/03/06 00:44:46;;;;;;;;;;;;;;;30.20;19.45;101127.59;5076317;28;901;-40
2022/03/06 00:47:11;;;;;;;;;;;;;;;30.11;19.63;101121.47;5087807;28;812;-39
2022/03/06 00:49:36;;;;;;;;;;;;;;;30.33;19.70;101126.03;5095181;28;868;-40
2022/03/06 00:52:02;;;;;;;;;;;;;;;30.29;19.62;101121.00;5095455;28;841;-41
2022/03/06 00:54:28;;;;;;;;;;;;;;;30.42;19.57;101120.28;5095225;28;829;-40
2022/03/06 00:56:53;;;;;;;;;;;;;;;30.46;19.46;101126.16;5091627;28;939;-42
2022/03/06 00:59:18;;;;;;;;;;;;;;;30.32;19.59;101127.91;5095381;28;1972;-41
2022/03/06 01:01:43;;;;;;;;;;;;;;;30.40;19.70;101124.22;5091466;28;762;-40
2022/03/06 01:04:09;;;;;;;;;;;;;;;30.35;19.54;101122.09;5095303;28;880;-40
2022/03/06 01:06:34;;;;;;;;;;;;;;;30.06;19.87;101118.47;5095252;28;1113;-40
2022/03/06 01:08:59;;;;;;;;;;;;;;;30.41;19.40;101118.59;5084649;28;916;-41
2022/03/06 01:11:25;;;;;;;;;;;;;;;30.42;19.42;101114.84;5094939;28;797;-40
2022/03/06 01:13:50;;;;;;;;;;;;;;;30.63;19.16;101110.38;5095410;28;797;-40
2022/03/06 01:16:15;;;;;;;;;;;;;;;30.40;19.46;101119.63;5086807;28;1407;-39
2022/03/06 01:18:40;;;;;;;;;;;;;;;30.45;19.44;101120.94;5075902;28;1971;-39
2022/03/06 01:21:06;;;;;;;;;;;;;;;30.16;19.64;101118.97;5083036;28;813;-38
2022/03/06 01:23:31;;;;;;;;;;;;;;;29.90;20.01;101112.28;5097554;28;1061;-39
2022/03/06 01:25:57;;;;;;;;;;;;;;;30.28;19.53;101115.78;5098375;28;1386;-38
2022/03/06 01:28:23;;;;;;;;;;;;;;;30.37;19.41;101121.88;5098723;28;1517;-38
2022/03/06 01:30:48;;;;;;;;;;;;;;;30.43;19.57;101123.81;5092988;28;863;-37
2022/03/06 01:33:13;;;;;;;;;;;;;;;30.51;19.50;101126.38;5093768;28;1031;-38
2022/03/06 01:35:38;;;;;;;;;;;;;;;30.31;19.59;101120.81;5098429;28;801;-38
2022/03/06 01:38:04;;;;;;;;;;;;;;;30.44;19.36;101120.09;5098486;28;889;-38
2022/03/06 01:40:29;;;;;;;;;;;;;;;30.14;19.45;101107.50;5098205;28;1960;-38
2022/03/06 01:42:54;;;;;;;;;;;;;;;29.94;19.95;101102.72;5098778;28;777;-41
2022/03/06 01:45:20;;;;;;;;;;;;;;;30.28;19.50;101103.03;5096292;28;815;-40
2022/03/06 01:47:50;;;;;;;;;;;;;;;30.32;19.52;101106.19;5095208;28;769;-40
2022/03/06 01:50:16;;;;;;;;;;;;;;;30.41;19.23;101101.47;5080165;28;804;-38
2022/03/06 01:52:41;;;;;;;;;;;;;;;30.31;19.44;101097.22;5098279;28;730;-37
2022/03/06 01:55:07;;;;;;;;;;;;;;;30.24;19.45;101090.91;5097918;28;802;-38
2022/03/06 01:57:32;;;;;;;;;;;;;;;30.44;19.46;101092.94;5098741;28;742;-37
2022/03/06 01:59:58;;;;;;;;;;;;;;;30.24;19.57;101084.63;5089200;28;1974;-40
2022/03/06 02:02:23;;;;;;;;;;;;;;;30.01;19.75;101089.19;5078883;28;965;-38
2022/03/06 02:04:49;;;;;;;;;;;;;;;30.43;19.42;101092.09;5078468;28;810;-38
2022/03/06 02:07:14;;;;;;;;;;;;;;;30.54;19.15;101090.72;5078303;28;1312;-39
2022/03/06 02:09:39;;;;;;;;;;;;;;;30.52;19.26;101092.78;5078312;28;889;-37
2022/03/06 02:12:23;;;;;;;;;;;;;;;30.36;19.41;101090.38;5086445;28;847;-38
2022/03/06 02:14:52;;;;;;;;;;;;;;;30.23;19.61;101091.94;5097643;28;857;-38
2022/03/06 02:17:18;;;;;;;;;;;;;;;30.26;19.38;101093.44;5091185;28;834;-38
2022/03/06 02:20:03;;;;;;;;;;;;;;;30.09;19.48;101084.69;5097838;28;1887;-39
2022/03/06 02:22:32;;;;;;;;;;;;;;;30.14;19.63;101101.22;5097482;28;1609;-38
2022/03/06 02:24:58;;;;;;;;;;;;;;;30.10;19.54;101103.47;5093458;28;780;-38
2022/03/06 02:27:23;;;;;;;;;;;;;;;30.27;19.42;101109.50;5097659;28;893;-38
2022/03/06 02:29:48;;;;;;;;;;;;;;;30.30;19.34;101103.69;5097277;28;809;-37
2022/03/06 02:32:15;;;;;;;;;;;;;;;30.09;19.55;101104.53;5092267;28;827;-37
2022/03/06 02:34:40;;;;;;;;;;;;;;;30.25;19.33;101110.72;5097031;28;762;-40
2022/03/06 02:37:06;;;;;;;;;;;;;;;30.14;19.31;101103.94;5096832;28;801;-38
2022/03/06 02:39:31;;;;;;;;;;;;;;;29.90;19.62;101104.13;5097436;28;1905;-38
2022/03/06 02:41:56;;;;;;;;;;;;;;;29.89;19.67;101099.75;5097387;28;865;-38
2022/03/06 02:44:22;;;;;;;;;;;;;;;29.88;19.84;101108.09;5097377;28;826;-39
2022/03/06 02:46:47;;;;;;;;;;;;;;;29.71;19.91;101116.47;5092909;28;882;-38
2022/03/06 02:49:15;;;;;;;;;;;;;;;29.45;20.29;101109.66;5096578;28;782;-38
2022/03/06 02:51:41;;;;;;;;;;;;;;;29.27;20.59;101118.19;5094860;28;754;-38
2022/03/06 02:54:06;;;;;;;;;;;;;;;29.41;20.46;101122.75;5078833;28;868;-38
2022/03/06 02:56:32;;;;;;;;;;;;;;;29.61;20.20;101115.94;5097049;28;730;-41
2022/03/06 02:58:58;;;;;;;;;;;;;;;29.92;19.83;101120.22;5078313;28;1957;-38
2022/03/06 03:01:24;;;;;;;;;;;;;;;30.02;19.71;101120.75;5088715;28;902;-41
2022/03/06 03:03:49;;;;;;;;;;;;;;;29.87;19.82;101119.94;5096476;28;894;-38
2022/03/06 03:06:15;;;;;;;;;;;;;;;30.01;19.65;101121.75;5096812;28;1176;-42
2022/03/06 03:08:41;;;;;;;;;;;;;;;30.22;19.51;101114.69;5096853;28;792;-40
2022/03/06 03:11:06;;;;;;;;;;;;;;;30.00;19.22;101116.53;5096991;28;775;-40
2022/03/06 03:13:32;;;;;;;;;;;;;;;29.62;20.02;101120.31;5096988;28;832;-40
2022/03/06 03:15:58;;;;;;;;;;;;;;;30.01;19.67;101121.75;5079897;28;853;-40
2022/03/06 03:18:23;;;;;;;;;;;;;;;30.06;19.74;101127.44;5077107;28;1963;-40
2022/03/06 03:20:49;;;;;;;;;;;;;;;30.01;19.53;101129.88;5077610;28;798;-40
2022/03/06 03:23:14;;;;;;;;;;;;;;;29.99;19.55;101131.97;5076867;28;991;-41
2022/03/06 03:25:40;;;;;;;;;;;;;;;29.96;19.69;101126.09;5076980;28;789;-40
2022/03/06 03:28:05;;;;;;;;;;;;;;;30.15;19.41;101146.28;5052095;28;817;-40
2022/03/06 03:30:30;;;;;;;;;;;;;;;30.39;19.12;101139.69;5091855;28;872;-42
2022/03/06 03:32:55;;;;;;;;;;;;;;;29.82;19.31;101147.66;5076814;28;743;-41
2022/03/06 03:35:21;;;;;;;;;;;;;;;29.45;20.08;101139.47;5076871;28;794;-38
2022/03/06 03:37:46;;;;;;;;;;;;;;;30.16;19.30;101148.00;5076783;28;801;-40
2022/03/06 03:40:11;;;;;;;;;;;;;;;30.16;19.42;101145.28;5075898;28;1967;-39
2022/03/06 03:42:37;;;;;;;;;;;;;;;30.23;19.24;101146.19;5092285;28;857;-39
2022/03/06 03:45:05;;;;;;;;;;;;;;;29.98;19.48;101141.13;5095888;28;815;-38
2022/03/06 03:47:30;;;;;;;;;;;;;;;30.08;19.55;101148.13;5075755;28;975;-40
2022/03/06 03:49:55;;;;;;;;;;;;;;;30.26;19.16;101144.97;5076903;28;901;-42
2022/03/06 03:52:20;;;;;;;;;;;;;;;29.82;19.59;101142.22;5076688;28;886;-42
2022/03/06 03:54:46;;;;;;;;;;;;;;;29.65;19.92;101142.47;5085892;28;863;-39
2022/03/06 03:57:13;;;;;;;;;;;;;;;29.80;19.32;101130.72;5096159;28;954;-38
2022/03/06 03:59:38;;;;;;;;;;;;;;;29.89;18.88;101136.88;5095585;28;1901;-40
2022/03/06 04:02:04;;;;;;;;;;;;;;;29.86;18.75;101131.84;5081661;28;1033;-38
2022/03/06 04:04:29;;;;;;;;;;;;;;;29.71;18.97;101127.31;5076160;28;887;-37
2022/03/06 04:06:54;;;;;;;;;;;;;;;29.79;18.95;101127.19;5083475;28;1166;-37
2022/03/06 04:09:20;;;;;;;;;;;;;;;30.06;18.85;101115.78;5095754;28;782;-38
2022/03/06 04:11:45;;;;;;;;;;;;;;;29.61;19.17;101115.94;5095878;28;810;-37
2022/03/06 04:14:10;;;;;;;;;;;;;;;29.51;19.80;101114.31;5096010;28;883;-38
2022/03/06 04:16:35;;;;;;;;;;;;;;;30.01;18.93;101110.91;5087476;28;1044;-37
2022/03/06 04:19:01;;;;;;;;;;;;;;;29.99;18.64;101114.84;5083148;28;1906;-45
2022/03/06 04:21:26;;;;;;;;;;;;;;;29.45;17.14;101101.53;5095759;28;853;-43
2022/03/06 04:23:51;;;;;;;;;;;;;;;28.64;16.67;101109.41;5096271;28;820;-45
2022/03/06 04:26:16;;;;;;;;;;;;;;;28.34;16.52;101103.94;5076745;28;878;-44
2022/03/06 04:28:42;;;;;;;;;;;;;;;28.07;15.93;101106.16;5095513;28;869;-40
2022/03/06 04:31:07;;;;;;;;;;;;;;;28.75;15.64;101109.97;5089494;28;901;-40
2022/03/06 04:33:32;;;;;;;;;;;;;;;28.92;15.85;101114.19;5092219;28;1040;-40
2022/03/06 04:35:58;;;;;;;;;;;;;;;29.26;16.23;101111.13;5095818;28;802;-40
2022/03/06 04:38:23;;;;;;;;;;;;;;;29.32;16.21;101103.06;5095392;28;1964;-41
2022/03/06 04:40:48;;;;;;;;;;;;;;;29.33;16.68;101109.31;5096060;28;805;-40
2022/03/06 04:43:13;;;;;;;;;;;;;;;29.25;16.68;101102.13;5095512;28;981;-40
2022/03/06 04:45:39;;;;;;;;;;;;;;;28.98;17.41;101109.91;5079414;28;898;-40
2022/03/06 04:48:04;;;;;;;;;;;;;;;28.05;16.05;101100.06;5075984;28;1567;-40
2022/03/06 04:50:29;;;;;;;;;;;;;;;27.01;14.41;101108.16;5076443;28;727;-40
2022/03/06 04:52:55;;;;;;;;;;;;;;;25.88;15.01;101112.28;5076134;28;882;-39
2022/03/06 04:55:20;;;;;;;;;;;;;;;25.70;16.24;101117.78;5076213;28;755;-38
2022/03/06 04:57:48;;;;;;;;;;;;;;;26.86;15.25;101116.16;5064375;28;845;-41
2022/03/06 05:00:14;;;;;;;;;;;;;;;27.42;14.94;101119.84;5098242;28;1959;-40
2022/03/06 05:02:39;;;;;;;;;;;;;;;27.88;14.28;101119.13;5090293;28;958;-39
2022/03/06 05:05:05;;;;;;;;;;;;;;;28.57;14.06;101113.88;5099572;28;803;-38
2022/03/06 05:07:30;;;;;;;;;;;;;;;28.54;14.51;101123.22;5098507;28;1248;-38
2022/03/06 05:09:56;;;;;;;;;;;;;;;28.72;14.91;101114.75;5088462;28;770;-38
2022/03/06 05:12:21;;;;;;;;;;;;;;;28.82;14.83;101129.84;5099622;28;833;-39
2022/03/06 05:14:46;;;;;;;;;;;;;;;28.46;15.22;101015.88;5099152;28;889;-38
2022/03/06 05:17:11;;;;;;;;;;;;;;;28.77;15.63;101118.75;5092750;28;922;-38
2022/03/06 05:19:37;;;;;;;;;;;;;;;29.20;15.43;101121.66;5099237;28;1975;-40
2022/03/06 05:22:02;;;;;;;;;;;;;;;29.04;15.97;101120.00;5097166;28;961;-38
2022/03/06 05:24:28;;;;;;;;;;;;;;;28.98;15.93;101123.44;5097068;28;800;-40
2022/03/06 05:26:53;;;;;;;;;;;;;;;28.87;16.45;101107.63;5099214;28;833;-39
2022/03/06 05:29:18;;;;;;;;;;;;;;;28.66;16.50;101110.03;5098323;28;766;-40
2022/03/06 05:31:43;;;;;;;;;;;;;;;28.57;16.93;101113.88;5095782;28;877;-40
2022/03/06 05:34:09;;;;;;;;;;;;;;;28.69;17.08;101112.41;5099236;28;802;-41
2022/03/06 05:36:34;;;;;;;;;;;;;;;28.56;17.43;101110.31;5093128;28;861;-39
2022/03/06 05:39:00;;;;;;;;;;;;;;;28.55;17.59;101107.78;5098760;28;1960;-41
2022/03/06 05:41:25;;;;;;;;;;;;;;;28.55;17.63;101105.09;5098813;28;734;-41
2022/03/06 05:43:50;;;;;;;;;;;;;;;28.62;17.44;101116.00;5098857;28;915;-40
2022/03/06 05:46:16;;;;;;;;;;;;;;;28.60;17.63;101117.06;5090554;28;946;-41
2022/03/06 05:48:41;;;;;;;;;;;;;;;28.79;17.57;101111.28;5087091;28;792;-41
2022/03/06 05:51:06;;;;;;;;;;;;;;;28.39;17.80;101115.06;5092518;28;763;-41
2022/03/06 05:53:33;;;;;;;;;;;;;;;28.60;17.94;101116.19;5098626;28;910;-40
2022/03/06 05:55:58;;;;;;;;;;;;;;;28.62;17.70;101114.16;5098200;28;767;-40
2022/03/06 05:58:23;;;;;;;;;;;;;;;28.61;17.78;101123.31;5098227;28;1898;-40
2022/03/06 06:00:49;;;;;;;;;;;;;;;28.54;17.90;101119.66;5091373;28;797;-41
2022/03/06 06:03:15;;;;;;;;;;;;;;;28.58;18.07;101119.09;5098035;28;853;-41
2022/03/06 06:05:40;;;;;;;;;;;;;;;28.50;18.07;101119.16;5098431;28;762;-41
2022/03/06 06:08:05;;;;;;;;;;;;;;;28.29;18.33;101126.09;5098254;28;1220;-41
2022/03/06 06:10:30;;;;;;;;;;;;;;;28.43;18.30;101131.75;5097240;28;773;-41
2022/03/06 06:12:56;;;;;;;;;;;;;;;28.53;18.39;101129.63;5097796;28;890;-40
2022/03/06 06:15:21;;;;;;;;;;;;;;;28.65;18.33;101127.31;5095274;28;785;-41
2022/03/06 06:17:46;;;;;;;;;;;;;;;28.69;18.26;101127.78;5096677;28;857;-41
2022/03/06 06:20:12;;;;;;;;;;;;;;;28.56;18.27;101125.72;5097606;28;1908;-41
2022/03/06 06:22:37;;;;;;;;;;;;;;;28.65;18.56;101135.44;5098128;28;770;-41
2022/03/06 06:25:02;;;;;;;;;;;;;;;28.56;18.36;101129.25;5098149;28;830;-42
2022/03/06 06:27:28;;;;;;;;;;;;;;;28.67;18.35;101136.09;5088560;28;805;-41
2022/03/06 06:29:53;;;;;;;;;;;;;;;28.59;18.41;101130.78;5098076;28;814;-41
2022/03/06 06:32:18;;;;;;;;;;;;;;;28.52;18.69;101127.94;5078692;28;1009;-42
2022/03/06 06:34:45;;;;;;;;;;;;;;;28.76;18.42;101131.44;5078054;28;901;-42
2022/03/06 06:37:10;;;;;;;;;;;;;;;28.80;18.01;101132.75;5078415;28;830;-41
2022/03/06 06:39:35;;;;;;;;;;;;;;;28.66;18.16;101133.59;5086098;28;1897;-40
2022/03/06 06:42:03;;;;;;;;;;;;;;;28.64;18.51;101136.47;5097538;28;826;-41
2022/03/06 06:44:28;;;;;;;;;;;;;;;28.84;18.18;101127.81;5097566;28;818;-41
2022/03/06 06:46:53;;;;;;;;;;;;;;;28.92;18.26;101130.44;5090244;28;838;-40
2022/03/06 06:49:18;;;;;;;;;;;;;;;28.65;18.30;101129.19;5097346;28;794;-40
2022/03/06 06:51:44;;;;;;;;;;;;;;;28.89;18.15;101138.94;5088255;28;734;-40
2022/03/06 06:54:09;;;;;;;;;;;;;;;28.68;18.65;101135.06;5097126;28;726;-39
2022/03/06 06:56:34;;;;;;;;;;;;;;;28.82;18.17;101141.53;5097315;28;936;-40
2022/03/06 06:59:00;;;;;;;;;;;;;;;28.81;18.46;101133.59;5096983;28;1901;-40
2022/03/06 07:01:25;;;;;;;;;;;;;;;28.73;18.65;101134.50;5084735;28;898;-40
2022/03/06 07:03:50;;;;;;;;;;;;;;;28.84;18.47;101131.34;5059460;28;1094;-41
2022/03/06 07:06:16;;;;;;;;;;;;;;;28.95;18.45;101140.03;5095515;28;1068;-40
2022/03/06 07:08:41;;;;;;;;;;;;;;;28.99;18.42;101138.69;5097623;28;749;-40
2022/03/06 07:11:06;;;;;;;;;;;;;;;29.03;18.13;101131.84;5097390;28;838;-40
2022/03/06 07:13:32;;;;;;;;;;;;;;;28.99;18.25;101133.28;5078245;28;1223;-39
2022/03/06 07:15:58;;;;;;;;;;;;;;;28.89;18.41;101140.78;5093056;28;831;-40
2022/03/06 07:18:23;;;;;;;;;;;;;;;29.07;18.21;101144.00;5088326;28;1906;-40
2022/03/06 07:20:48;;;;;;;;;;;;;;;29.08;18.14;101129.44;5096114;28;743;-40
2022/03/06 07:23:15;;;;;;;;;;;;;;;28.90;18.47;101134.34;5097072;28;785;-40
2022/03/06 07:25:40;;;;;;;;;;;;;;;28.97;18.22;101132.59;5096557;28;802;-40
2022/03/06 07:28:05;;;;;;;;;;;;;;;28.93;18.55;101128.53;5096453;28;892;-40
2022/03/06 07:30:31;;;;;;;;;;;;;;;28.97;18.39;101135.31;5092002;28;834;-40
2022/03/06 07:32:56;;;;;;;;;;;;;;;28.69;18.72;101127.78;5092674;28;791;-40
2022/03/06 07:35:21;;;;;;;;;;;;;;;28.94;18.31;101133.81;5096129;28;850;-40
2022/03/06 07:37:47;;;;;;;;;;;;;;;28.57;18.90;101130.97;5096495;28;829;-41
2022/03/06 07:40:13;;;;;;;;;;;;;;;28.93;18.40;101133.97;5096228;28;1969;-43
2022/03/06 07:42:38;;;;;;;;;;;;;;;28.90;18.64;101137.03;5088120;28;841;-43
2022/03/06 07:45:03;;;;;;;;;;;;;;;29.22;18.06;101126.91;5096547;28;805;-42
2022/03/06 07:47:29;;;;;;;;;;;;;;;29.37;18.19;101129.59;5089924;28;913;-42
2022/03/06 07:49:54;;;;;;;;;;;;;;;29.05;18.37;101112.69;5095952;28;881;-42
2022/03/06 07:52:19;;;;;;;;;;;;;;;29.24;17.94;101124.84;5096283;28;733;-42
2022/03/06 07:54:45;;;;;;;;;;;;;;;29.19;18.02;101120.00;5096344;28;798;-42
2022/03/06 07:57:10;;;;;;;;;;;;;;;29.34;18.04;101119.13;5094973;28;877;-41
2022/03/06 07:59:36;;;;;;;;;;;;;;;29.20;18.28;101126.25;5096135;28;1906;-41
2022/03/06 08:02:01;;;;;;;;;;;;;;;29.32;18.25;101115.75;5078192;28;879;-43
2022/03/06 08:04:27;;;;;;;;;;;;;;;29.03;18.30;101114.78;5076870;28;790;-43
2022/03/06 08:06:52;;;;;;;;;;;;;;;28.98;18.50;101120.72;5076742;28;1554;-44
2022/03/06 08:09:18;;;;;;;;;;;;;;;29.33;18.30;101121.00;5086511;28;857;-42
2022/03/06 08:11:43;;;;;;;;;;;;;;;29.11;18.48;101116.53;5095678;28;792;-42
2022/03/06 08:14:08;;;;;;;;;;;;;;;29.13;18.25;101115.31;5095873;28;765;-42
2022/03/06 08:16:34;;;;;;;;;;;;;;;29.34;18.15;101119.13;5093454;28;833;-41
2022/03/06 08:18:59;;;;;;;;;;;;;;;29.03;18.64;101112.06;5095656;28;1910;-41
2022/03/06 08:21:24;;;;;;;;;;;;;;;29.25;18.52;101117.53;5086463;28;837;-42
2022/03/06 08:23:51;;;;;;;;;;;;;;;29.10;18.36;101123.81;5076313;28;798;-41
2022/03/06 08:26:16;;;;;;;;;;;;;;;29.15;18.58;101115.13;5076639;28;845;-41
2022/03/06 08:28:42;;;;;;;;;;;;;;;29.36;18.43;101114.38;5076508;28;805;-42
2022/03/06 08:31:07;;;;;;;;;;;;;;;29.12;18.43;101110.09;5077660;28;897;-41
2022/03/06 08:33:32;;;;;;;;;;;;;;;29.31;18.41;101109.50;5057794;28;1106;-42
2022/03/06 08:35:58;;;;;;;;;;;;;;;29.44;18.01;101116.97;5095807;28;804;-41
2022/03/06 08:38:23;;;;;;;;;;;;;;;29.14;18.54;101111.59;5095809;28;987;-41
2022/03/06 08:40:48;;;;;;;;;;;;;;;29.22;18.39;101113.34;5095351;28;1961;-40
2022/03/06 08:43:14;;;;;;;;;;;;;;;29.35;18.08;101104.53;5096018;28;825;-42
2022/03/06 08:45:39;;;;;;;;;;;;;;;28.92;18.45;101108.78;5088293;28;823;-42
2022/03/06 08:48:05;;;;;;;;;;;;;;;28.53;19.09;101105.28;5088344;28;733;-42
2022/03/06 08:50:30;;;;;;;;;;;;;;;27.83;19.94;101108.00;5095606;28;782;-41
2022/03/06 08:52:55;;;;;;;;;;;;;;;27.96;20.10;101110.13;5095552;28;861;-41
2022/03/06 08:55:20;;;;;;;;;;;;;;;27.94;20.17;101112.16;5095275;28;877;-41
2022/03/06 08:57:46;;;;;;;;;;;;;;;28.07;19.89;101106.16;5095491;28;1465;-40
2022/03/06 09:00:11;;;;;;;;;;;;;;;28.27;19.73;101116.47;5088299;28;1898;-40
2022/03/06 09:02:37;;;;;;;;;;;;;;;28.75;19.38;101113.50;5084875;28;1366;-41
2022/03/06 09:05:02;;;;;;;;;;;;;;;29.29;18.33;101114.28;5075763;28;782;-41
2022/03/06 09:07:27;;;;;;;;;;;;;;;28.70;19.03;101110.53;5076179;28;1065;-40
2022/03/06 09:09:53;;;;;;;;;;;;;;;28.56;19.32;101106.78;5075803;28;782;-41
2022/03/06 09:12:19;;;;;;;;;;;;;;;27.62;20.46;101112.16;5070800;28;782;-42
2022/03/06 09:14:45;;;;;;;;;;;;;;;28.06;19.70;101112.59;5095222;28;953;-41
2022/03/06 09:17:10;;;;;;;;;;;;;;;27.69;20.54;101115.88;5077481;28;1013;-40
2022/03/06 09:19:35;;;;;;;;;;;;;;;27.66;20.56;101105.38;5075548;28;1906;-40
2022/03/06 09:22:01;;;;;;;;;;;;;;;27.75;20.09;101107.06;5075964;28;856;-41
2022/03/06 09:24:26;;;;;;;;;;;;;;;27.68;20.53;101113.28;5073297;28;834;-41
2022/03/06 09:26:51;;;;;;;;;;;;;;;28.45;19.27;101119.72;5094721;28;829;-40
2022/03/06 09:29:17;;;;;;;;;;;;;;;28.68;19.12;101123.38;5095766;28;806;-39
2022/03/06 09:31:43;;;;;;;;;;;;;;;28.73;19.18;101115.56;5080130;28;858;-42
2022/03/06 09:34:08;;;;;;;;;;;;;;;28.81;19.27;101114.66;5095372;28;805;-41
2022/03/06 09:36:35;;;;;;;;;;;;;;;28.16;19.67;101106.94;5095366;28;793;-43
2022/03/06 09:39:00;;;;;;;;;;;;;;;28.32;19.61;101105.94;5063428;28;1953;-41
2022/03/06 09:41:26;;;;;;;;;;;;;;;28.68;19.52;101101.72;5094801;28;903;-42
2022/03/06 09:43:52;;;;;;;;;;;;;;;29.67;18.21;101113.28;5095126;28;916;-41
2022/03/06 09:46:17;;;;;;;;;;;;;;;28.85;19.03;101102.41;5071033;28;877;-40
2022/03/06 09:48:43;;;;;;;;;;;;;;;28.28;19.88;101102.75;5061486;28;797;-40
2022/03/06 09:51:08;;;;;;;;;;;;;;;27.75;20.21;101100.78;5089873;28;947;-41
2022/03/06 09:53:33;;;;;;;;;;;;;;;28.19;20.02;101095.75;5097977;28;845;-41
2022/03/06 09:55:59;;;;;;;;;;;;;;;28.64;19.14;101103.16;5098250;28;737;-41
2022/03/06 09:58:24;;;;;;;;;;;;;;;28.81;18.84;101088.41;5098595;28;893;-42
2022/03/06 10:00:49;;;;;;;;;;;;;;;28.29;19.78;101098.19;5094956;28;1910;-41
2022/03/06 10:03:18;;;;;;;;;;;;;;;28.02;20.31;101081.50;5086043;28;1452;-41
2022/03/06 10:05:43;;;;;;;;;;;;;;;28.52;19.61;101083.81;5098179;28;810;-41
2022/03/06 10:08:11;;;;;;;;;;;;;;;28.03;20.20;101085.91;5098176;28;1034;-41
2022/03/06 10:10:37;;;;;;;;;;;;;;;28.44;20.03;101077.47;5097977;28;904;-41
2022/03/06 10:13:22;;;;;;;;;;;;;;;27.96;20.22;101075.78;5079256;28;834;-42
2022/03/06 10:16:03;;;;;;;;;;;;;;;27.65;20.72;101073.97;5089727;28;2004;-40
2022/03/06 10:18:29;;;;;;;;;;;;;;;27.70;20.66;101068.91;5098018;28;897;-41
2022/03/06 10:20:54;;;;;;;;;;;;;;;28.54;19.98;101066.38;5097960;28;818;-41
2022/03/06 10:23:23;;;;;;;;;;;;;;;28.70;19.23;101061.78;5079135;28;1299;-41
2022/03/06 10:26:09;;;;;;;;;;;;;;;28.92;18.76;101060.03;5097799;28;823;-41
2022/03/06 10:28:46;;;;;;;;;;;;;;;29.16;19.04;101058.03;5086156;28;834;-41
2022/03/06 10:31:11;;;;;;;;;;;;;;;27.61;20.51;101048.34;5091496;28;829;-40
2022/03/06 10:33:37;;;;;;;;;;;;;;;27.71;20.62;101051.66;5097411;28;792;-40
2022/03/06 10:36:02;;;;;;;;;;;;;;;29.06;19.27;101062.94;5097822;28;858;-41
2022/03/06 10:38:31;;;;;;;;;;;;;;;27.81;20.56;101046.00;5097920;28;838;-40
2022/03/06 10:40:57;;;;;;;;;;;;;;;28.03;20.13;101048.88;5094812;28;898;-41
2022/03/06 10:43:30;;;;;;;;;;;;;;;28.29;19.83;101055.75;5097678;28;903;-41
2022/03/06 10:46:11;;;;;;;;;;;;;;;27.86;20.22;101050.88;5091521;28;974;-40
2022/03/06 10:48:37;;;;;;;;;;;;;;;27.93;20.40;101056.38;5097424;28;857;-40
2022/03/06 10:51:03;;;;;;;;;;;;;;;28.10;20.52;101049.00;5097572;28;836;-40
2022/03/06 10:53:31;;;;;;;;;;;;;;;28.09;20.17;101050.84;5094285;28;809;-40
2022/03/06 10:56:05;;;;;;;;;;;;;;;27.58;20.61;101037.84;5094909;28;1035;-40
2022/03/06 10:58:30;;;;;;;;;;;;;;;28.84;19.03;101043.88;5097694;28;1905;-41
2022/03/06 11:00:55;;;;;;;;;;;;;;;28.46;19.51;101045.63;5070341;28;839;-41
2022/03/06 11:03:20;;;;;;;;;;;;;;;27.89;20.61;101031.59;5059682;28;821;-42
2022/03/06 11:05:46;;;;;;;;;;;;;;;28.94;18.88;101039.03;5059930;28;1399;-42
2022/03/06 11:08:12;;;;;;;;;;;;;;;29.15;18.70;101039.28;5093905;28;1261;-43
2022/03/06 11:10:38;;;;;;;;;;;;;;;27.94;20.38;101023.78;5096560;28;861;-41
2022/03/06 11:13:04;;;;;;;;;;;;;;;27.43;21.02;101024.28;5097031;28;805;-42
2022/03/06 11:15:29;;;;;;;;;;;;;;;28.75;19.48;101009.78;5077223;28;902;-41
2022/03/06 11:17:57;;;;;;;;;;;;;;;28.48;19.55;101010.25;5058343;28;974;-41
2022/03/06 11:20:22;;;;;;;;;;;;;;;28.24;20.00;101013.00;5086322;28;1974;-41
2022/03/06 11:22:49;;;;;;;;;;;;;;;28.68;19.62;101010.53;5096641;28;884;-43
2022/03/06 11:25:17;;;;;;;;;;;;;;;28.60;19.44;101007.94;5096851;28;823;-41
2022/03/06 11:28:01;;;;;;;;;;;;;;;29.21;18.98;101006.84;5078922;28;923;-41
2022/03/06 11:30:26;;;;;;;;;;;;;;;29.17;18.65;101002.00;5093565;28;1012;-41
2022/03/06 11:33:18;;;;;;;;;;;;;;;29.39;18.71;101002.88;5085710;28;874;-41
2022/03/06 11:35:43;;;;;;;;;;;;;;;27.55;21.11;101003.09;5092393;28;1974;-39
2022/03/06 11:38:10;;;;;;;;;;;;;;;27.35;21.11;101007.13;5096651;28;766;-42
2022/03/06 11:40:38;;;;;;;;;;;;;;;27.38;21.33;101000.50;5070239;28;1898;-40
2022/03/06 11:43:03;;;;;;;;;;;;;;;27.55;21.28;100998.53;5076958;28;905;-41
2022/03/06 11:45:47;;;;;;;;;;;;;;;27.63;21.19;100994.94;5086166;28;797;-41
2022/03/06 11:48:26;;;;;;;;;;;;;;;27.69;20.88;101001.50;5072347;28;899;-41
2022/03/06 11:51:23;;;;;;;;;;;;;;;27.83;20.93;100989.06;5077273;28;723;-40
2022/03/06 11:54:00;;;;;;;;;;;;;;;27.65;20.95;100989.34;5029944;28;1352;-40
2022/03/06 11:56:35;;;;;;;;;;;;;;;27.79;20.65;100996.72;5077028;28;810;-41
2022/03/06 11:59:10;;;;;;;;;;;;;;;28.25;20.31;100986.81;5092407;28;1905;-41
2022/03/06 12:01:42;;;;;;;;;;;;;;;28.72;19.24;100986.66;5087719;28;988;-41
2022/03/06 12:04:12;;;;;;;;;;;;;;;28.91;19.50;100979.81;5096413;28;1031;-42
2022/03/06 12:06:43;;;;;;;;;;;;;;;28.21;20.22;100982.81;5095662;28;1315;-41
2022/03/06 12:09:15;;;;;;;;;;;;;;;27.60;20.91;100962.88;5095898;28;881;-40
2022/03/06 12:11:40;;;;;;;;;;;;;;;27.26;21.47;100956.84;5090640;28;1514;-41
2022/03/06 12:14:21;;;;;;;;;;;;;;;27.42;21.31;100958.63;5095615;28;918;-41
2022/03/06 12:17:06;;;;;;;;;;;;;;;27.41;21.40;100959.63;5084371;28;863;-40
2022/03/06 12:19:31;;;;;;;;;;;;;;;27.55;21.16;100960.72;5095511;28;1905;-40
2022/03/06 12:22:11;;;;;;;;;;;;;;;27.61;20.86;100959.97;5095987;28;841;-40
2022/03/06 12:24:37;;;;;;;;;;;;;;;27.64;20.75;100961.50;5094005;28;922;-41
2022/03/06 12:27:11;;;;;;;;;;;;;;;28.33;20.37;100961.56;5096146;28;791;-40
2022/03/06 12:29:45;;;;;;;;;;;;;;;27.89;20.63;100957.75;5095881;28;855;-40
2022/03/06 12:32:26;;;;;;;;;;;;;;;27.95;20.48;100957.88;5088317;28;958;-40
2022/03/06 12:34:58;;;;;;;;;;;;;;;28.44;19.69;100963.81;5095448;28;825;-40
2022/03/06 12:37:30;;;;;;;;;;;;;;;28.71;19.30;100966.84;5067642;28;988;-40
2022/03/06 12:39:55;;;;;;;;;;;;;;;28.75;19.79;100967.31;5095822;28;1972;-40
2022/03/06 12:42:27;;;;;;;;;;;;;;;27.92;20.51;100960.94;5095875;28;729;-42
2022/03/06 12:44:53;;;;;;;;;;;;;;;27.36;21.20;100962.03;5095234;28;932;-40
2022/03/06 12:47:18;;;;;;;;;;;;;;;27.39;21.33;100958.97;5092937;28;837;-41
2022/03/06 12:49:50;;;;;;;;;;;;;;;27.43;21.12;100957.59;5075196;28;1069;-40
2022/03/06 12:52:16;;;;;;;;;;;;;;;27.32;21.39;100955.31;5095609;28;814;-41